createdAt,value
2017-03-15T00:00:37.991Z,27.87
2017-03-15T00:01:48.542Z,27.78
2017-03-15T00:02:58.852Z,27.87
2017-03-15T00:04:08.849Z,28.07
2017-03-15T00:05:19.153Z,28.16
2017-03-15T00:06:29.485Z,27.97
2017-03-15T00:07:40.091Z,28.26
2017-03-15T00:08:50.078Z,28.16
2017-03-15T00:10:00.381Z,28.26
2017-03-15T00:11:10.664Z,28.16
2017-03-15T00:12:20.974Z,28.26
2017-03-15T00:13:30.958Z,28.26
2017-03-15T00:14:41.255Z,28.07
2017-03-15T00:15:51.243Z,28.07
2017-03-15T00:17:01.550Z,28.16
2017-03-15T00:18:11.869Z,28.26
2017-03-15T00:19:22.135Z,28.26
2017-03-15T00:20:32.425Z,28.16
2017-03-15T00:21:42.718Z,28.26
2017-03-15T00:22:53.034Z,28.07
2017-03-15T00:24:03.009Z,27.97
2017-03-15T00:25:13.569Z,27.97
2017-03-15T00:26:23.869Z,27.87
2017-03-15T00:27:34.183Z,28.16
2017-03-15T00:28:44.183Z,27.87
2017-03-15T00:29:54.481Z,27.87
2017-03-15T00:31:04.739Z,28.45
2017-03-15T00:32:15.083Z,28.55
2017-03-15T00:33:25.078Z,28.16
2017-03-15T00:34:35.389Z,28.45
2017-03-15T00:35:45.767Z,28.55
2017-03-15T00:36:56.446Z,28.55
2017-03-15T00:38:06.752Z,28.45
2017-03-15T00:39:17.070Z,28.55
2017-03-15T00:40:27.361Z,28.55
2017-03-15T00:41:37.357Z,28.45
2017-03-15T00:42:47.901Z,28.55
2017-03-15T00:43:58.200Z,28.74
2017-03-15T00:45:07.893Z,28.56
2017-03-15T00:46:18.196Z,28.55
2017-03-15T00:47:28.199Z,28.55
2017-03-15T00:48:38.772Z,28.55
2017-03-15T00:49:48.756Z,28.45
2017-03-15T00:50:58.750Z,28.84
2017-03-15T00:52:08.750Z,28.93
2017-03-15T00:53:18.748Z,28.84
2017-03-15T00:54:28.731Z,28.84
2017-03-15T00:55:39.039Z,28.74
2017-03-15T00:56:49.037Z,28.74
2017-03-15T00:57:59.325Z,28.64
2017-03-15T00:59:09.345Z,28.74
2017-03-15T01:00:19.895Z,28.74
2017-03-15T01:01:30.197Z,28.93
2017-03-15T01:02:40.549Z,28.93
2017-03-15T01:03:50.874Z,28.74
2017-03-15T01:05:00.881Z,28.74
2017-03-15T01:06:11.440Z,28.84
2017-03-15T01:07:21.738Z,29.03
2017-03-15T01:08:32.039Z,28.84
2017-03-15T01:09:42.347Z,28.93
2017-03-15T01:10:52.644Z,28.93
2017-03-15T01:12:03.210Z,28.93
2017-03-15T01:13:13.217Z,29.03
2017-03-15T01:14:23.524Z,28.74
2017-03-15T01:15:33.822Z,28.74
2017-03-15T01:16:43.809Z,28.84
2017-03-15T01:17:54.356Z,29.03
2017-03-15T01:19:04.348Z,29.03
2017-03-15T01:20:14.334Z,29.03
2017-03-15T01:21:24.657Z,28.93
2017-03-15T01:22:34.963Z,29.03
2017-03-15T01:23:45.566Z,29.03
2017-03-15T01:24:55.868Z,29.03
2017-03-15T01:26:05.847Z,29.03
2017-03-15T01:27:16.159Z,29.13
2017-03-15T01:28:26.458Z,28.93
2017-03-15T01:29:37.061Z,29.03
2017-03-15T01:30:47.369Z,29.13
2017-03-15T01:31:57.696Z,29.03
2017-03-15T01:33:07.687Z,29.13
2017-03-15T01:34:17.672Z,29.03
2017-03-15T01:35:28.237Z,29.03
2017-03-15T01:36:38.222Z,29.13
2017-03-15T01:37:48.518Z,29.13
2017-03-15T01:38:58.535Z,29.13
2017-03-15T01:40:08.516Z,28.93
2017-03-15T01:41:18.756Z,29.13
2017-03-15T01:42:29.054Z,29.51
2017-03-15T01:43:39.361Z,29.51
2017-03-15T01:44:49.348Z,29.51
2017-03-15T01:45:59.335Z,29.51
2017-03-15T01:47:09.575Z,29.22
2017-03-15T01:48:19.243Z,29.41
2017-03-15T01:49:29.553Z,29.41
2017-03-15T01:50:39.540Z,29.41
2017-03-15T01:51:49.837Z,29.51
2017-03-15T01:53:00.390Z,29.41
2017-03-15T01:54:10.394Z,29.32
2017-03-15T01:55:20.695Z,29.22
2017-03-15T01:56:30.994Z,29.33
2017-03-15T01:57:41.311Z,29.22
2017-03-15T01:58:51.857Z,29.22
2017-03-15T02:00:02.183Z,29.13
2017-03-15T02:01:12.484Z,29.22
2017-03-15T02:02:22.775Z,29.22
2017-03-15T02:03:33.084Z,29.22
2017-03-15T02:04:43.332Z,29.22
2017-03-15T02:05:53.655Z,29.22
2017-03-15T02:07:03.655Z,29.32
2017-03-15T02:08:13.956Z,29.41
2017-03-15T02:09:24.247Z,29.61
2017-03-15T02:10:34.488Z,29.41
2017-03-15T02:11:44.167Z,29.33
2017-03-15T02:12:54.473Z,29.41
2017-03-15T02:14:04.141Z,29.61
2017-03-15T02:15:14.446Z,29.41
2017-03-15T02:16:25.037Z,29.7
2017-03-15T02:17:35.039Z,29.41
2017-03-15T02:18:45.329Z,29.41
2017-03-15T02:19:55.319Z,29.51
2017-03-15T02:21:05.708Z,29.32
2017-03-15T02:22:15.373Z,29.7
2017-03-15T02:23:25.675Z,29.41
2017-03-15T02:24:35.975Z,29.41
2017-03-15T02:25:45.972Z,29.32
2017-03-15T02:26:55.975Z,29.51
2017-03-15T02:28:06.523Z,29.9
2017-03-15T02:29:16.824Z,29.72
2017-03-15T02:30:27.136Z,29.8
2017-03-15T02:31:37.437Z,29.32
2017-03-15T02:32:47.735Z,29.7
2017-03-15T02:33:57.948Z,29.61
2017-03-15T02:35:07.933Z,29.7
2017-03-15T02:36:18.235Z,29.61
2017-03-15T02:37:28.529Z,29.51
2017-03-15T02:38:38.503Z,29.9
2017-03-15T02:39:49.067Z,29.41
2017-03-15T02:40:59.073Z,29.99
2017-03-15T02:42:09.395Z,29.41
2017-03-15T02:43:19.383Z,29.61
2017-03-15T02:44:29.369Z,29.7
2017-03-15T02:45:39.927Z,29.99
2017-03-15T02:46:49.924Z,29.8
2017-03-15T02:48:00.227Z,29.9
2017-03-15T02:49:10.526Z,29.8
2017-03-15T02:50:20.513Z,29.8
2017-03-15T02:51:30.776Z,29.9
2017-03-15T02:52:41.079Z,29.8
2017-03-15T02:53:51.383Z,29.8
2017-03-15T02:55:01.690Z,29.8
2017-03-15T02:56:11.998Z,29.7
2017-03-15T02:57:22.551Z,29.8
2017-03-15T02:58:32.557Z,29.8
2017-03-15T02:59:42.876Z,29.8
2017-03-15T03:00:53.176Z,29.7
2017-03-15T03:02:02.870Z,29.7
2017-03-15T03:03:13.124Z,29.7
2017-03-15T03:04:23.124Z,29.7
2017-03-15T03:05:33.441Z,29.99
2017-03-15T03:06:43.425Z,29.9
2017-03-15T03:07:53.735Z,29.7
2017-03-15T03:09:04.340Z,29.8
2017-03-15T03:10:14.327Z,29.99
2017-03-15T03:11:24.318Z,29.7
2017-03-15T03:12:33.994Z,29.8
2017-03-15T03:13:43.998Z,29.9
2017-03-15T03:14:54.251Z,29.8
2017-03-15T03:16:04.253Z,29.99
2017-03-15T03:17:14.271Z,29.8
2017-03-15T03:18:24.573Z,30.18
2017-03-15T03:19:34.279Z,30.28
2017-03-15T03:20:44.519Z,29.99
2017-03-15T03:21:54.813Z,30.08
2017-03-15T03:23:04.798Z,29.99
2017-03-15T03:24:14.474Z,30.08
2017-03-15T03:25:24.471Z,30.08
2017-03-15T03:26:35.082Z,30.08
2017-03-15T03:27:45.383Z,30.08
2017-03-15T03:28:55.684Z,29.99
2017-03-15T03:30:05.667Z,30.08
2017-03-15T03:31:15.361Z,30.28
2017-03-15T03:32:25.332Z,30.28
2017-03-15T03:33:35.672Z,29.99
2017-03-15T03:34:45.802Z,30.08
2017-03-15T03:35:55.835Z,30.38
2017-03-15T03:37:05.812Z,30.28
2017-03-15T03:38:16.411Z,29.99
2017-03-15T03:39:26.704Z,29.99
2017-03-15T03:40:37.028Z,30.47
2017-03-15T03:41:47.029Z,29.91
2017-03-15T03:42:57.027Z,30.47
2017-03-15T03:44:07.268Z,30.38
2017-03-15T03:45:17.562Z,30.08
2017-03-15T03:46:27.574Z,30.38
2017-03-15T03:47:37.562Z,30.38
2017-03-15T03:48:47.556Z,30.28
2017-03-15T03:49:58.160Z,30.28
2017-03-15T03:51:07.838Z,30.18
2017-03-15T03:52:17.831Z,30.38
2017-03-15T03:53:28.141Z,30.38
2017-03-15T03:54:38.477Z,30.38
2017-03-15T03:55:48.716Z,30.38
2017-03-15T03:56:59.068Z,30.38
2017-03-15T03:58:09.359Z,30.38
2017-03-15T03:59:19.662Z,30.38
2017-03-15T04:00:29.961Z,30.38
2017-03-15T04:01:40.190Z,30.28
2017-03-15T04:02:50.177Z,30.38
2017-03-15T04:04:00.191Z,30.47
2017-03-15T04:05:09.860Z,30.38
2017-03-15T04:06:19.863Z,30.38
2017-03-15T04:07:30.420Z,30.38
2017-03-15T04:08:40.406Z,30.28
2017-03-15T04:09:50.393Z,29.99
2017-03-15T04:11:00.701Z,30.38
2017-03-15T04:12:11.048Z,30.38
2017-03-15T04:13:21.287Z,30.38
2017-03-15T04:14:31.639Z,29.99
2017-03-15T04:15:41.636Z,30.47
2017-03-15T04:16:51.626Z,30.38
2017-03-15T04:18:01.936Z,30.47
2017-03-15T04:19:12.475Z,30.08
2017-03-15T04:20:22.778Z,29.9
2017-03-15T04:21:33.073Z,30.18
2017-03-15T04:22:43.054Z,29.9
2017-03-15T04:23:53.364Z,29.9
2017-03-15T04:25:03.978Z,30.28
2017-03-15T04:26:13.962Z,29.99
2017-03-15T04:27:24.260Z,29.99
2017-03-15T04:28:34.560Z,30.18
2017-03-15T04:29:44.871Z,29.99
2017-03-15T04:30:55.421Z,29.7
2017-03-15T04:32:05.404Z,29.8
2017-03-15T04:33:15.709Z,29.8
2017-03-15T04:34:26.007Z,29.8
2017-03-15T04:35:36.007Z,29.99
2017-03-15T04:36:46.304Z,29.8
2017-03-15T04:37:56.607Z,29.9
2017-03-15T04:39:06.603Z,29.8
2017-03-15T04:40:16.906Z,29.7
2017-03-15T04:41:27.220Z,29.41
2017-03-15T04:42:37.810Z,29.41
2017-03-15T04:43:48.109Z,29.32
2017-03-15T04:44:58.103Z,29.61
2017-03-15T04:46:08.400Z,29.41
2017-03-15T04:47:18.401Z,29.7
2017-03-15T04:48:28.938Z,29.9
2017-03-15T04:49:38.923Z,29.8
2017-03-15T04:50:49.124Z,29.8
2017-03-15T04:51:59.428Z,29.51
2017-03-15T04:53:09.425Z,29.8
2017-03-15T04:54:20.042Z,29.61
2017-03-15T04:55:30.328Z,29.8
2017-03-15T04:56:40.634Z,29.8
2017-03-15T04:57:50.939Z,29.61
2017-03-15T04:59:00.925Z,29.51
2017-03-15T05:00:11.164Z,29.7
2017-03-15T05:01:21.473Z,29.8
2017-03-15T05:02:31.789Z,29.61
2017-03-15T05:03:42.091Z,29.51
2017-03-15T05:04:52.394Z,29.7
2017-03-15T05:06:02.692Z,29.99
2017-03-15T05:07:12.986Z,30.28
2017-03-15T05:08:22.984Z,30.08
2017-03-15T05:09:33.297Z,29.99
2017-03-15T05:10:43.613Z,30.28
2017-03-15T05:11:54.183Z,29.9
2017-03-15T05:13:04.480Z,30.18
2017-03-15T05:14:14.471Z,30.38
2017-03-15T05:15:24.487Z,30.18
2017-03-15T05:16:34.474Z,29.9
2017-03-15T05:17:45.094Z,29.9
2017-03-15T05:18:55.398Z,30.28
2017-03-15T05:20:05.380Z,29.99
2017-03-15T05:21:15.363Z,30.08
2017-03-15T05:22:25.351Z,30.18
2017-03-15T05:23:35.901Z,29.99
2017-03-15T05:24:45.924Z,30.08
2017-03-15T05:25:55.906Z,30.08
2017-03-15T05:27:05.908Z,29.99
2017-03-15T05:28:16.208Z,30.08
2017-03-15T05:29:26.775Z,29.99
2017-03-15T05:30:37.083Z,29.8
2017-03-15T05:31:47.084Z,29.7
2017-03-15T05:32:57.076Z,29.9
2017-03-15T05:34:06.446Z,29.7
2017-03-15T05:35:17.059Z,29.8
2017-03-15T05:36:27.362Z,29.7
2017-03-15T05:37:37.364Z,29.8
2017-03-15T05:38:47.348Z,29.9
2017-03-15T05:39:57.646Z,29.9
2017-03-15T05:41:07.943Z,29.61
2017-03-15T05:42:18.243Z,29.8
2017-03-15T05:43:28.545Z,30.08
2017-03-15T05:44:38.858Z,29.41
2017-03-15T05:45:48.857Z,29.61
2017-03-15T05:46:59.089Z,29.9
2017-03-15T05:48:09.389Z,29.99
2017-03-15T05:49:19.689Z,29.9
2017-03-15T05:50:30.000Z,29.8
2017-03-15T05:51:40.304Z,29.41
2017-03-15T05:52:50.910Z,29.8
2017-03-15T05:54:01.232Z,29.51
2017-03-15T05:55:11.551Z,29.41
2017-03-15T05:56:21.226Z,29.8
2017-03-15T05:57:31.210Z,29.8
2017-03-15T05:58:41.460Z,29.7
2017-03-15T05:59:51.766Z,30.08
2017-03-15T06:01:01.763Z,29.7
2017-03-15T06:02:12.375Z,29.61
2017-03-15T06:03:22.693Z,29.7
2017-03-15T06:04:32.992Z,29.61
2017-03-15T06:05:43.312Z,29.41
2017-03-15T06:06:53.611Z,29.51
2017-03-15T06:08:03.594Z,29.51
2017-03-15T06:09:13.594Z,29.61
2017-03-15T06:10:24.145Z,29.41
2017-03-15T06:11:34.158Z,29.41
2017-03-15T06:12:44.158Z,29.22
2017-03-15T06:13:54.177Z,29.32
2017-03-15T06:15:04.502Z,29.14
2017-03-15T06:16:15.098Z,29.32
2017-03-15T06:17:24.791Z,29.14
2017-03-15T06:18:35.118Z,29.24
2017-03-15T06:19:45.444Z,29.41
2017-03-15T06:20:55.751Z,29.41
2017-03-15T06:22:06.000Z,29.51
2017-03-15T06:23:16.312Z,29.32
2017-03-15T06:24:26.001Z,29.14
2017-03-15T06:25:36.048Z,29.14
2017-03-15T06:26:46.404Z,29.03
2017-03-15T06:27:56.702Z,29.04
2017-03-15T06:29:07.023Z,29.13
2017-03-15T06:30:17.350Z,29.03
2017-03-15T06:31:27.696Z,28.95
2017-03-15T06:32:38.038Z,28.95
2017-03-15T06:33:48.614Z,28.93
2017-03-15T06:34:58.310Z,28.85
2017-03-15T06:36:08.323Z,28.85
2017-03-15T06:37:18.625Z,29.03
2017-03-15T06:38:28.986Z,28.84
2017-03-15T06:39:39.284Z,28.75
2017-03-15T06:40:49.597Z,28.66
2017-03-15T06:41:59.603Z,28.95
2017-03-15T06:43:09.978Z,28.56
2017-03-15T06:44:19.962Z,28.45
2017-03-15T06:45:30.214Z,28.47
2017-03-15T06:46:40.526Z,28.55
2017-03-15T06:47:50.847Z,28.56
2017-03-15T06:49:01.171Z,28.55
2017-03-15T06:50:11.492Z,28.56
2017-03-15T06:51:21.779Z,28.45
2017-03-15T06:52:32.078Z,28.47
2017-03-15T06:53:42.397Z,28.37
2017-03-15T06:54:52.771Z,28.37
2017-03-15T06:56:03.069Z,28.18
2017-03-15T06:57:13.639Z,28.27
2017-03-15T06:58:23.947Z,27.89
2017-03-15T06:59:34.243Z,27.98
2017-03-15T07:00:44.260Z,28.27
2017-03-15T07:01:54.588Z,28.08
2017-03-15T07:03:04.899Z,28.27
2017-03-15T07:04:14.884Z,28.27
2017-03-15T07:05:25.197Z,28.18
2017-03-15T07:06:35.518Z,28.18
2017-03-15T07:07:45.527Z,28.18
2017-03-15T07:08:55.792Z,28.18
2017-03-15T07:10:05.480Z,28.27
2017-03-15T07:11:15.792Z,28.18
2017-03-15T07:12:25.791Z,28.08
2017-03-15T07:13:36.119Z,28.08
2017-03-15T07:14:46.362Z,28.18
2017-03-15T07:15:56.372Z,28.18
2017-03-15T07:17:06.701Z,27.98
2017-03-15T07:18:17.059Z,27.98
2017-03-15T07:19:27.418Z,28.18
2017-03-15T07:20:37.971Z,27.98
2017-03-15T07:21:47.975Z,27.89
2017-03-15T07:22:58.314Z,27.8
2017-03-15T07:24:08.614Z,27.7
2017-03-15T07:25:18.947Z,27.5
2017-03-15T07:26:29.498Z,27.6
2017-03-15T07:27:39.229Z,27.22
2017-03-15T07:28:49.582Z,27.6
2017-03-15T07:29:59.591Z,27.7
2017-03-15T07:31:09.973Z,27.6
2017-03-15T07:32:20.221Z,27.22
2017-03-15T07:33:30.557Z,27.31
2017-03-15T07:34:40.877Z,27.22
2017-03-15T07:35:50.947Z,27.31
2017-03-15T07:37:01.294Z,27.22
2017-03-15T07:38:11.850Z,27.02
2017-03-15T07:39:22.173Z,27.12
2017-03-15T07:40:32.194Z,27.22
2017-03-15T07:41:42.551Z,27.12
2017-03-15T07:42:52.874Z,26.83
2017-03-15T07:44:03.437Z,26.93
2017-03-15T07:45:13.140Z,26.73
2017-03-15T07:46:23.156Z,26.64
2017-03-15T07:47:33.500Z,26.36
2017-03-15T07:48:43.554Z,26.46
2017-03-15T07:49:54.428Z,26.25
2017-03-15T07:51:04.469Z,26.36
2017-03-15T07:52:14.532Z,26.16
2017-03-15T07:53:24.925Z,26.17
2017-03-15T07:54:34.940Z,26.07
2017-03-15T07:55:45.615Z,26.27
2017-03-15T07:56:55.956Z,26.07
2017-03-15T07:58:06.319Z,26.07
2017-03-15T07:59:16.044Z,26.27
2017-03-15T08:00:26.628Z,25.79
2017-03-15T08:01:36.941Z,26.07
2017-03-15T08:02:47.052Z,25.4
2017-03-15T08:03:57.344Z,25.59
2017-03-15T08:05:07.706Z,25.4
2017-03-15T08:06:17.772Z,25.21
2017-03-15T08:07:28.078Z,25.02
2017-03-15T08:08:38.436Z,24.82
2017-03-15T08:09:48.767Z,24.44
2017-03-15T08:10:58.774Z,24.63
2017-03-15T08:12:09.124Z,24.54
2017-03-15T08:13:19.751Z,24.15
2017-03-15T08:14:29.764Z,23.96
2017-03-15T08:15:40.083Z,24.34
2017-03-15T08:16:50.096Z,23.86
2017-03-15T08:18:00.425Z,23.96
2017-03-15T08:19:10.996Z,23.96
2017-03-15T08:20:21.333Z,23.96
2017-03-15T08:21:31.664Z,23.57
2017-03-15T08:22:41.994Z,23.19
2017-03-15T08:23:52.264Z,23.28
2017-03-15T08:25:02.899Z,23.38
2017-03-15T08:26:13.258Z,22.99
2017-03-15T08:27:23.766Z,23.38
2017-03-15T08:28:34.130Z,23.28
2017-03-15T08:29:43.909Z,23.09
2017-03-15T08:30:54.537Z,23.77
2017-03-15T08:32:04.605Z,23.19
2017-03-15T08:33:14.925Z,23.09
2017-03-15T08:34:25.231Z,23.28
2017-03-15T08:35:35.225Z,22.99
2017-03-15T08:36:45.891Z,22.99
2017-03-15T08:37:55.904Z,23.09
2017-03-15T08:39:06.224Z,23.28
2017-03-15T08:40:16.240Z,23.38
2017-03-15T08:41:26.554Z,23.09
2017-03-15T08:42:36.868Z,22.9
2017-03-15T08:43:46.887Z,22.9
2017-03-15T08:44:57.220Z,22.8
2017-03-15T08:46:07.535Z,22.61
2017-03-15T08:47:17.853Z,22.71
2017-03-15T08:48:28.472Z,22.22
2017-03-15T08:49:39.037Z,22.03
2017-03-15T08:50:49.387Z,22.13
2017-03-15T08:51:59.715Z,22.32
2017-03-15T08:53:10.025Z,21.84
2017-03-15T08:54:20.678Z,21.84
2017-03-15T08:55:31.083Z,21.75
2017-03-15T08:56:40.771Z,21.75
2017-03-15T08:57:50.786Z,21.65
2017-03-15T08:59:01.139Z,21.66
2017-03-15T09:00:11.686Z,21.84
2017-03-15T09:01:21.686Z,21.65
2017-03-15T09:02:31.691Z,21.75
2017-03-15T09:03:42.000Z,21.56
2017-03-15T09:04:52.303Z,21.56
2017-03-15T09:06:02.269Z,21.27
2017-03-15T09:07:12.582Z,20.89
2017-03-15T09:08:22.580Z,20.89
2017-03-15T09:09:32.907Z,20.98
2017-03-15T09:10:43.222Z,20.98
2017-03-15T09:11:53.449Z,20.6
2017-03-15T09:13:03.769Z,20.6
2017-03-15T09:14:14.099Z,20.5
2017-03-15T09:15:24.409Z,20.21
2017-03-15T09:16:34.742Z,20.4
2017-03-15T09:17:45.368Z,20.6
2017-03-15T09:18:55.700Z,19.64
2017-03-15T09:20:06.037Z,20.31
2017-03-15T09:21:16.373Z,20.6
2017-03-15T09:22:26.392Z,20.4
2017-03-15T09:23:36.343Z,20.12
2017-03-15T09:24:46.032Z,20.21
2017-03-15T09:25:56.042Z,19.83
2017-03-15T09:27:06.352Z,19.64
2017-03-15T09:28:16.679Z,19.93
2017-03-15T09:29:27.251Z,19.25
2017-03-15T09:30:37.609Z,19.15
2017-03-15T09:31:47.940Z,19.15
2017-03-15T09:32:58.314Z,19.25
2017-03-15T09:34:08.326Z,18.96
2017-03-15T09:35:18.936Z,18.48
2017-03-15T09:36:29.295Z,18.87
2017-03-15T09:37:39.666Z,18.77
2017-03-15T09:38:49.985Z,18.87
2017-03-15T09:40:00.023Z,18.96
2017-03-15T09:41:10.296Z,19.06
2017-03-15T09:42:20.615Z,18.96
2017-03-15T09:43:30.931Z,18.96
2017-03-15T09:44:41.267Z,18.96
2017-03-15T09:45:51.262Z,18.87
2017-03-15T09:47:01.571Z,18.96
2017-03-15T09:48:11.912Z,18.87
2017-03-15T09:49:21.607Z,18.58
2017-03-15T09:50:31.652Z,18.48
2017-03-15T09:51:42.452Z,18.29
2017-03-15T09:52:52.810Z,18
2017-03-15T09:54:03.190Z,18.29
2017-03-15T09:55:13.495Z,18.58
2017-03-15T09:56:23.876Z,18.48
2017-03-15T09:57:34.535Z,18.58
2017-03-15T09:58:44.963Z,17.9
2017-03-15T09:59:55.305Z,18.1
2017-03-15T10:01:05.673Z,18.38
2017-03-15T10:02:16.010Z,18.68
2017-03-15T10:03:26.606Z,18.58
2017-03-15T10:04:36.963Z,18.48
2017-03-15T10:05:47.296Z,18.48
2017-03-15T10:06:57.347Z,18.58
2017-03-15T10:08:07.684Z,18.3
2017-03-15T10:09:18.381Z,18.48
2017-03-15T10:10:28.959Z,18.19
2017-03-15T10:11:39.280Z,18
2017-03-15T10:12:49.423Z,18.77
2017-03-15T10:13:59.746Z,18.4
2017-03-15T10:15:10.419Z,18.68
2017-03-15T10:16:20.446Z,18.1
2017-03-15T10:17:30.799Z,17.91
2017-03-15T10:18:41.110Z,18.01
2017-03-15T10:19:51.449Z,18.2
2017-03-15T10:21:02.044Z,18.01
2017-03-15T10:22:12.353Z,18.2
2017-03-15T10:23:22.355Z,18.4
2017-03-15T10:24:32.073Z,18.01
2017-03-15T10:25:42.172Z,17.91
2017-03-15T10:26:52.447Z,17.91
2017-03-15T10:28:01.509Z,18.4
2017-03-15T10:29:11.859Z,18.01
2017-03-15T10:30:22.415Z,18.01
2017-03-15T10:31:32.761Z,17.91
2017-03-15T10:32:43.005Z,17.82
2017-03-15T10:33:53.383Z,17.91
2017-03-15T10:35:03.688Z,17.72
2017-03-15T10:36:14.015Z,17.43
2017-03-15T10:37:24.493Z,17.72
2017-03-15T10:38:34.764Z,17.62
2017-03-15T10:39:45.112Z,17.53
2017-03-15T10:40:55.455Z,17.53
2017-03-15T10:42:05.798Z,17.53
2017-03-15T10:43:16.165Z,17.33
2017-03-15T10:44:25.863Z,17.53
2017-03-15T10:45:36.193Z,17.43
2017-03-15T10:46:46.179Z,17.05
2017-03-15T10:47:56.192Z,16.95
2017-03-15T10:49:06.508Z,17.05
2017-03-15T10:50:16.237Z,16.95
2017-03-15T10:51:26.627Z,17.05
2017-03-15T10:52:36.873Z,17.33
2017-03-15T10:53:47.234Z,17.43
2017-03-15T10:54:57.821Z,17.43
2017-03-15T10:56:08.138Z,17.24
2017-03-15T10:57:18.162Z,16.85
2017-03-15T10:58:28.468Z,16.95
2017-03-15T10:59:38.471Z,17.05
2017-03-15T11:00:48.767Z,16.75
2017-03-15T11:01:58.454Z,16.66
2017-03-15T11:03:08.946Z,16.85
2017-03-15T11:04:19.261Z,16.85
2017-03-15T11:05:29.615Z,16.66
2017-03-15T11:06:39.884Z,16.95
2017-03-15T11:07:50.205Z,16.75
2017-03-15T11:09:00.516Z,17.05
2017-03-15T11:10:10.511Z,16.95
2017-03-15T11:11:20.516Z,17.05
2017-03-15T11:12:31.164Z,16.85
2017-03-15T11:13:41.175Z,16.66
2017-03-15T11:14:50.901Z,16.66
2017-03-15T11:16:00.598Z,16.75
2017-03-15T11:17:10.958Z,16.56
2017-03-15T11:18:20.893Z,16.47
2017-03-15T11:19:31.236Z,16.47
2017-03-15T11:20:41.547Z,16.56
2017-03-15T11:21:51.557Z,16.37
2017-03-15T11:23:01.894Z,16.28
2017-03-15T11:24:12.479Z,17.05
2017-03-15T11:25:22.479Z,16.95
2017-03-15T11:26:32.481Z,16.75
2017-03-15T11:27:42.815Z,16.66
2017-03-15T11:28:52.806Z,16.85
2017-03-15T11:30:03.378Z,17.24
2017-03-15T11:31:13.382Z,17.43
2017-03-15T11:32:23.390Z,17.24
2017-03-15T11:33:33.373Z,16.66
2017-03-15T11:34:43.686Z,16.66
2017-03-15T11:35:53.955Z,16.47
2017-03-15T11:37:04.016Z,16.08
2017-03-15T11:38:14.443Z,15.99
2017-03-15T11:39:24.765Z,15.99
2017-03-15T11:40:35.111Z,16.08
2017-03-15T11:41:45.391Z,16.08
2017-03-15T11:42:55.078Z,15.99
2017-03-15T11:44:05.073Z,15.98
2017-03-15T11:45:14.768Z,15.99
2017-03-15T11:46:24.799Z,15.7
2017-03-15T11:47:35.049Z,15.21
2017-03-15T11:48:45.033Z,15.8
2017-03-15T11:49:54.741Z,15.6
2017-03-15T11:51:05.075Z,15.6
2017-03-15T11:52:14.764Z,15.7
2017-03-15T11:53:25.077Z,15.6
2017-03-15T11:54:35.064Z,15.7
2017-03-15T11:55:44.751Z,15.7
2017-03-15T11:56:55.079Z,15.7
2017-03-15T11:58:05.077Z,15.22
2017-03-15T11:59:15.315Z,15.22
2017-03-15T12:00:24.982Z,15.31
2017-03-15T12:01:35.017Z,14.83
2017-03-15T12:02:45.023Z,15.02
2017-03-15T12:03:55.030Z,14.34
2017-03-15T12:05:05.600Z,14.83
2017-03-15T12:06:15.923Z,14.73
2017-03-15T12:07:26.246Z,14.64
2017-03-15T12:08:36.239Z,14.83
2017-03-15T12:09:46.236Z,15.11
2017-03-15T12:10:56.793Z,15.11
2017-03-15T12:12:07.109Z,15.31
2017-03-15T12:13:17.398Z,15.21
2017-03-15T12:14:27.382Z,15.21
2017-03-15T12:15:37.683Z,15.3
2017-03-15T12:16:48.269Z,14.83
2017-03-15T12:17:58.572Z,13.76
2017-03-15T12:19:08.245Z,13.96
2017-03-15T12:20:18.551Z,13.96
2017-03-15T12:21:28.850Z,13.76
2017-03-15T12:22:39.458Z,13.48
2017-03-15T12:23:49.446Z,13.48
2017-03-15T12:24:59.765Z,13.48
2017-03-15T12:26:10.098Z,13.86
2017-03-15T12:27:20.407Z,13.67
2017-03-15T12:28:30.956Z,13.86
2017-03-15T12:29:41.261Z,14.15
2017-03-15T12:30:51.282Z,14.06
2017-03-15T12:32:00.718Z,14.06
2017-03-15T12:33:11.015Z,14.05
2017-03-15T12:34:21.277Z,13.76
2017-03-15T12:35:31.592Z,13.96
2017-03-15T12:36:41.593Z,13.76
2017-03-15T12:37:51.909Z,13.57
2017-03-15T12:39:02.235Z,13.86
2017-03-15T12:40:12.812Z,13.57
2017-03-15T12:41:22.812Z,13.18
2017-03-15T12:42:33.116Z,13.28
2017-03-15T12:43:43.432Z,13.18
2017-03-15T12:44:53.779Z,13.48
2017-03-15T12:46:04.407Z,13.48
2017-03-15T12:47:14.729Z,13.76
2017-03-15T12:48:25.043Z,13.86
2017-03-15T12:49:35.340Z,14.05
2017-03-15T12:50:45.696Z,14.53
2017-03-15T12:51:55.685Z,14.63
2017-03-15T12:53:05.401Z,14.25
2017-03-15T12:54:15.844Z,14.63
2017-03-15T12:55:28.097Z,14.15
2017-03-15T12:56:38.405Z,14.15
2017-03-15T12:57:49.033Z,14.15
2017-03-15T12:58:59.047Z,14.15
2017-03-15T13:00:09.407Z,14.34
2017-03-15T13:01:19.402Z,14.15
2017-03-15T13:02:29.732Z,13.86
2017-03-15T13:03:40.352Z,13.67
2017-03-15T13:04:50.370Z,13.57
2017-03-15T13:06:00.057Z,13.57
2017-03-15T13:07:10.381Z,13.09
2017-03-15T13:08:20.690Z,12.71
2017-03-15T13:09:31.270Z,12.99
2017-03-15T13:10:41.591Z,12.61
2017-03-15T13:11:51.925Z,13.18
2017-03-15T13:13:02.236Z,12.61
2017-03-15T13:14:12.230Z,12.71
2017-03-15T13:15:23.374Z,12.41
2017-03-15T13:16:33.696Z,12.13
2017-03-15T13:17:43.410Z,12.13
2017-03-15T13:18:53.725Z,12.23
2017-03-15T13:20:03.694Z,12.03
2017-03-15T13:21:14.441Z,12.32
2017-03-15T13:22:24.153Z,11.55
2017-03-15T13:23:33.836Z,11.65
2017-03-15T13:24:43.840Z,12.13
2017-03-15T13:25:53.844Z,11.26
2017-03-15T13:27:04.088Z,11.46
2017-03-15T13:28:14.396Z,11.55
2017-03-15T13:29:24.694Z,11.65
2017-03-15T13:30:34.696Z,11.55
2017-03-15T13:31:44.693Z,12.03
2017-03-15T13:32:55.266Z,11.93
2017-03-15T13:34:05.571Z,12.23
2017-03-15T13:35:15.606Z,12.23
2017-03-15T13:36:26.035Z,12.23
2017-03-15T13:37:36.377Z,12.71
2017-03-15T13:38:47.006Z,12.13
2017-03-15T13:39:57.348Z,12.61
2017-03-15T13:41:07.071Z,12.61
2017-03-15T13:42:17.391Z,12.23
2017-03-15T13:43:27.697Z,12.03
2017-03-15T13:44:38.464Z,12.23
2017-03-15T13:45:48.774Z,12.23
2017-03-15T13:46:59.407Z,11.84
2017-03-15T13:48:09.737Z,11.93
2017-03-15T13:49:20.038Z,11.84
2017-03-15T13:50:30.687Z,11.65
2017-03-15T13:51:40.691Z,11.36
2017-03-15T13:52:51.083Z,11.36
2017-03-15T13:54:01.410Z,11.26
2017-03-15T13:55:11.738Z,11.16
2017-03-15T13:56:22.310Z,11.16
2017-03-15T13:57:32.660Z,10.78
2017-03-15T13:58:43.052Z,10.49
2017-03-15T13:59:53.043Z,10.49
2017-03-15T14:01:03.508Z,10.68
2017-03-15T14:02:13.858Z,10.78
2017-03-15T14:03:24.150Z,10.49
2017-03-15T14:04:34.454Z,10.59
2017-03-15T14:05:44.779Z,10.49
2017-03-15T14:06:55.071Z,10.59
2017-03-15T14:08:05.621Z,10.49
2017-03-15T14:09:15.593Z,10.49
2017-03-15T14:10:25.636Z,11.16
2017-03-15T14:11:35.641Z,10.97
2017-03-15T14:12:45.951Z,11.07
2017-03-15T14:13:56.517Z,10.97
2017-03-15T14:15:06.822Z,11.07
2017-03-15T14:16:16.968Z,10.78
2017-03-15T14:17:27.266Z,10.97
2017-03-15T14:18:37.554Z,11.16
2017-03-15T14:19:47.475Z,11.07
2017-03-15T14:20:57.785Z,11.07
2017-03-15T14:22:08.092Z,11.16
2017-03-15T14:23:18.384Z,10.88
2017-03-15T14:24:28.690Z,11.16
2017-03-15T14:25:39.258Z,11.16
2017-03-15T14:26:48.933Z,11.07
2017-03-15T14:27:59.254Z,10.97
2017-03-15T14:29:09.243Z,11.16
2017-03-15T14:30:19.560Z,11.36
2017-03-15T14:31:30.129Z,11.36
2017-03-15T14:32:40.137Z,11.36
2017-03-15T14:33:50.446Z,11.36
2017-03-15T14:35:00.759Z,11.26
2017-03-15T14:36:11.087Z,11.46
2017-03-15T14:37:21.318Z,11.36
2017-03-15T14:38:31.622Z,10.88
2017-03-15T14:39:41.618Z,10.68
2017-03-15T14:40:51.604Z,10.49
2017-03-15T14:42:01.921Z,10.49
2017-03-15T14:43:12.501Z,9.91
2017-03-15T14:44:22.498Z,9.91
2017-03-15T14:45:32.802Z,9.81
2017-03-15T14:46:43.109Z,9.53
2017-03-15T14:47:53.097Z,9.34
2017-03-15T14:49:03.655Z,9.43
2017-03-15T14:50:13.663Z,9.34
2017-03-15T14:59:29.816Z,9.34
2017-03-15T15:00:39.801Z,9.24
2017-03-15T15:01:50.103Z,9.14
2017-03-15T15:02:59.783Z,9.34
2017-03-15T15:04:09.766Z,9.72
2017-03-15T15:05:20.387Z,9.72
2017-03-15T15:06:30.728Z,10.01
2017-03-15T15:07:41.071Z,9.63
2017-03-15T15:08:51.390Z,9.72
2017-03-15T15:10:01.048Z,9.81
2017-03-15T15:11:11.276Z,9.72
2017-03-15T15:12:21.580Z,9.91
2017-03-15T15:13:31.883Z,10
2017-03-15T15:14:41.868Z,10.11
2017-03-15T15:15:52.188Z,10.01
2017-03-15T15:17:02.747Z,10.11
2017-03-15T15:18:12.749Z,9.91